sensor_id;sensor_type;location;lat;lon;timestamp;P1;durP1;ratioP1;P2;durP2;ratioP2
74108;SDS011;62466;47.566;7.786;2023-04-22T00:00:20;12.05;;;8.07;;
74108;SDS011;62466;47.566;7.786;2023-04-22T00:02:46;11.00;;;7.55;;
74108;SDS011;62466;47.566;7.786;2023-04-22T00:05:12;12.88;;;8.85;;
74108;SDS011;62466;47.566;7.786;2023-04-22T00:07:41;11.18;;;7.93;;
74108;SDS011;62466;47.566;7.786;2023-04-22T00:10:07;11.05;;;7.78;;
74108;SDS011;62466;47.566;7.786;2023-04-22T00:12:34;13.48;;;8.50;;
74108;SDS011;62466;47.566;7.786;2023-04-22T00:14:59;12.02;;;8.40;;
74108;SDS011;62466;47.566;7.786;2023-04-22T00:17:25;12.63;;;8.27;;
74108;SDS011;62466;47.566;7.786;2023-04-22T00:19:50;12.82;;;8.50;;
74108;SDS011;62466;47.566;7.786;2023-04-22T00:22:16;12.50;;;8.73;;
74108;SDS011;62466;47.566;7.786;2023-04-22T00:24:41;16.77;;;9.40;;
74108;SDS011;62466;47.566;7.786;2023-04-22T00:27:07;15.73;;;8.55;;
74108;SDS011;62466;47.566;7.786;2023-04-22T00:29:32;12.55;;;8.95;;
74108;SDS011;62466;47.566;7.786;2023-04-22T00:31:58;13.95;;;9.75;;
74108;SDS011;62466;47.566;7.786;2023-04-22T00:34:23;16.08;;;9.82;;
74108;SDS011;62466;47.566;7.786;2023-04-22T00:36:49;16.38;;;9.63;;
74108;SDS011;62466;47.566;7.786;2023-04-22T00:39:15;16.50;;;9.35;;
74108;SDS011;62466;47.566;7.786;2023-04-22T00:41:41;13.77;;;8.82;;
74108;SDS011;62466;47.566;7.786;2023-04-22T00:44:10;13.18;;;8.88;;
74108;SDS011;62466;47.566;7.786;2023-04-22T00:46:36;14.50;;;8.55;;
74108;SDS011;62466;47.566;7.786;2023-04-22T00:49:03;13.13;;;9.13;;
74108;SDS011;62466;47.566;7.786;2023-04-22T00:51:29;14.13;;;8.93;;
74108;SDS011;62466;47.566;7.786;2023-04-22T00:53:55;16.85;;;10.15;;
74108;SDS011;62466;47.566;7.786;2023-04-22T00:56:21;15.25;;;9.68;;
74108;SDS011;62466;47.566;7.786;2023-04-22T00:58:55;14.93;;;9.63;;
74108;SDS011;62466;47.566;7.786;2023-04-22T01:01:21;20.30;;;9.75;;
74108;SDS011;62466;47.566;7.786;2023-04-22T01:03:47;18.55;;;10.70;;
74108;SDS011;62466;47.566;7.786;2023-04-22T01:06:14;17.05;;;9.77;;
74108;SDS011;62466;47.566;7.786;2023-04-22T01:08:41;16.05;;;9.88;;
74108;SDS011;62466;47.566;7.786;2023-04-22T01:11:06;14.30;;;9.23;;
74108;SDS011;62466;47.566;7.786;2023-04-22T01:13:32;14.73;;;9.23;;
74108;SDS011;62466;47.566;7.786;2023-04-22T01:15:57;15.40;;;8.32;;
74108;SDS011;62466;47.566;7.786;2023-04-22T01:18:24;13.57;;;8.98;;
74108;SDS011;62466;47.566;7.786;2023-04-22T01:20:51;12.73;;;8.73;;
74108;SDS011;62466;47.566;7.786;2023-04-22T01:23:17;13.32;;;8.82;;
74108;SDS011;62466;47.566;7.786;2023-04-22T01:25:44;13.38;;;8.90;;
74108;SDS011;62466;47.566;7.786;2023-04-22T01:28:10;13.45;;;9.07;;
74108;SDS011;62466;47.566;7.786;2023-04-22T01:34:23;13.02;;;8.77;;
74108;SDS011;62466;47.566;7.786;2023-04-22T01:36:49;14.82;;;9.63;;
74108;SDS011;62466;47.566;7.786;2023-04-22T01:39:15;15.43;;;9.73;;
74108;SDS011;62466;47.566;7.786;2023-04-22T01:41:41;18.00;;;10.57;;
74108;SDS011;62466;47.566;7.786;2023-04-22T01:44:06;17.98;;;10.43;;
74108;SDS011;62466;47.566;7.786;2023-04-22T01:46:32;14.35;;;10.32;;
74108;SDS011;62466;47.566;7.786;2023-04-22T01:48:58;15.38;;;9.80;;
74108;SDS011;62466;47.566;7.786;2023-04-22T01:51:23;17.55;;;10.90;;
74108;SDS011;62466;47.566;7.786;2023-04-22T01:53:49;15.32;;;10.80;;
74108;SDS011;62466;47.566;7.786;2023-04-22T01:56:15;18.83;;;10.52;;
74108;SDS011;62466;47.566;7.786;2023-04-22T01:58:41;13.57;;;9.40;;
74108;SDS011;62466;47.566;7.786;2023-04-22T02:01:07;16.67;;;10.95;;
74108;SDS011;62466;47.566;7.786;2023-04-22T02:03:37;15.77;;;9.75;;
74108;SDS011;62466;47.566;7.786;2023-04-22T02:06:03;18.92;;;10.43;;
74108;SDS011;62466;47.566;7.786;2023-04-22T02:08:29;14.48;;;10.05;;
74108;SDS011;62466;47.566;7.786;2023-04-22T02:10:55;13.25;;;8.95;;
74108;SDS011;62466;47.566;7.786;2023-04-22T02:13:20;15.48;;;9.90;;
74108;SDS011;62466;47.566;7.786;2023-04-22T02:15:47;17.25;;;10.00;;
74108;SDS011;62466;47.566;7.786;2023-04-22T02:18:14;13.85;;;9.07;;
74108;SDS011;62466;47.566;7.786;2023-04-22T02:20:42;14.88;;;9.00;;
74108;SDS011;62466;47.566;7.786;2023-04-22T02:23:07;14.02;;;9.25;;
74108;SDS011;62466;47.566;7.786;2023-04-22T02:25:33;12.88;;;8.10;;
74108;SDS011;62466;47.566;7.786;2023-04-22T02:27:58;11.85;;;7.80;;
74108;SDS011;62466;47.566;7.786;2023-04-22T02:30:24;12.38;;;8.98;;
74108;SDS011;62466;47.566;7.786;2023-04-22T02:32:51;13.50;;;8.45;;
74108;SDS011;62466;47.566;7.786;2023-04-22T02:35:17;12.10;;;9.20;;
74108;SDS011;62466;47.566;7.786;2023-04-22T02:37:43;13.63;;;9.20;;
74108;SDS011;62466;47.566;7.786;2023-04-22T02:40:08;12.38;;;8.35;;
74108;SDS011;62466;47.566;7.786;2023-04-22T02:42:34;11.23;;;7.88;;
74108;SDS011;62466;47.566;7.786;2023-04-22T02:45:00;10.55;;;8.07;;
74108;SDS011;62466;47.566;7.786;2023-04-22T02:47:25;11.30;;;8.38;;
74108;SDS011;62466;47.566;7.786;2023-04-22T02:49:51;11.63;;;7.65;;
74108;SDS011;62466;47.566;7.786;2023-04-22T02:52:17;11.93;;;8.07;;
74108;SDS011;62466;47.566;7.786;2023-04-22T02:54:42;12.73;;;9.20;;
74108;SDS011;62466;47.566;7.786;2023-04-22T02:57:08;14.65;;;9.25;;
74108;SDS011;62466;47.566;7.786;2023-04-22T02:59:33;12.98;;;9.25;;
74108;SDS011;62466;47.566;7.786;2023-04-22T03:02:01;12.52;;;9.05;;
74108;SDS011;62466;47.566;7.786;2023-04-22T03:04:58;14.07;;;9.02;;
74108;SDS011;62466;47.566;7.786;2023-04-22T03:07:25;10.75;;;8.55;;
74108;SDS011;62466;47.566;7.786;2023-04-22T03:09:50;12.75;;;8.35;;
74108;SDS011;62466;47.566;7.786;2023-04-22T03:12:16;10.77;;;8.05;;
74108;SDS011;62466;47.566;7.786;2023-04-22T03:14:41;13.57;;;8.27;;
74108;SDS011;62466;47.566;7.786;2023-04-22T03:17:07;12.10;;;8.50;;
74108;SDS011;62466;47.566;7.786;2023-04-22T03:19:33;14.70;;;9.43;;
74108;SDS011;62466;47.566;7.786;2023-04-22T03:21:58;13.63;;;9.50;;
74108;SDS011;62466;47.566;7.786;2023-04-22T03:24:25;13.43;;;8.55;;
74108;SDS011;62466;47.566;7.786;2023-04-22T03:26:51;13.32;;;10.02;;
74108;SDS011;62466;47.566;7.786;2023-04-22T03:29:17;13.35;;;9.70;;
74108;SDS011;62466;47.566;7.786;2023-04-22T03:31:42;12.05;;;8.35;;
74108;SDS011;62466;47.566;7.786;2023-04-22T03:34:08;10.25;;;7.50;;
74108;SDS011;62466;47.566;7.786;2023-04-22T03:36:35;10.88;;;8.38;;
74108;SDS011;62466;47.566;7.786;2023-04-22T03:39:00;10.38;;;6.50;;
74108;SDS011;62466;47.566;7.786;2023-04-22T03:41:27;11.20;;;7.35;;
74108;SDS011;62466;47.566;7.786;2023-04-22T03:43:53;8.43;;;6.82;;
74108;SDS011;62466;47.566;7.786;2023-04-22T03:46:19;10.27;;;7.10;;
74108;SDS011;62466;47.566;7.786;2023-04-22T03:49:11;10.65;;;7.13;;
74108;SDS011;62466;47.566;7.786;2023-04-22T03:51:36;8.38;;;6.43;;
74108;SDS011;62466;47.566;7.786;2023-04-22T03:54:07;8.63;;;6.47;;
74108;SDS011;62466;47.566;7.786;2023-04-22T03:56:35;9.32;;;7.35;;
74108;SDS011;62466;47.566;7.786;2023-04-22T03:59:01;9.68;;;7.30;;
74108;SDS011;62466;47.566;7.786;2023-04-22T04:01:26;10.70;;;7.07;;
74108;SDS011;62466;47.566;7.786;2023-04-22T04:03:56;8.30;;;6.80;;
74108;SDS011;62466;47.566;7.786;2023-04-22T04:06:26;12.00;;;7.63;;
74108;SDS011;62466;47.566;7.786;2023-04-22T04:08:52;10.20;;;7.68;;
74108;SDS011;62466;47.566;7.786;2023-04-22T04:11:17;12.30;;;8.02;;
74108;SDS011;62466;47.566;7.786;2023-04-22T04:13:44;10.70;;;7.70;;
74108;SDS011;62466;47.566;7.786;2023-04-22T04:16:32;10.50;;;7.50;;
74108;SDS011;62466;47.566;7.786;2023-04-22T04:19:09;12.75;;;8.48;;
74108;SDS011;62466;47.566;7.786;2023-04-22T04:21:36;13.32;;;7.88;;
74108;SDS011;62466;47.566;7.786;2023-04-22T04:24:04;13.52;;;8.50;;
74108;SDS011;62466;47.566;7.786;2023-04-22T04:26:33;11.48;;;7.68;;
74108;SDS011;62466;47.566;7.786;2023-04-22T04:29:07;12.43;;;8.23;;
74108;SDS011;62466;47.566;7.786;2023-04-22T04:31:35;12.25;;;8.80;;
74108;SDS011;62466;47.566;7.786;2023-04-22T04:34:01;12.40;;;7.80;;
74108;SDS011;62466;47.566;7.786;2023-04-22T04:36:27;11.38;;;7.35;;
74108;SDS011;62466;47.566;7.786;2023-04-22T04:38:55;10.32;;;7.60;;
74108;SDS011;62466;47.566;7.786;2023-04-22T04:41:21;11.45;;;8.70;;
74108;SDS011;62466;47.566;7.786;2023-04-22T04:43:48;13.95;;;8.10;;
74108;SDS011;62466;47.566;7.786;2023-04-22T04:46:26;9.25;;;7.50;;
74108;SDS011;62466;47.566;7.786;2023-04-22T04:48:56;10.98;;;8.32;;
74108;SDS011;62466;47.566;7.786;2023-04-22T04:51:25;12.00;;;7.55;;
74108;SDS011;62466;47.566;7.786;2023-04-22T04:53:54;9.60;;;7.82;;
74108;SDS011;62466;47.566;7.786;2023-04-22T04:56:20;11.40;;;8.18;;
74108;SDS011;62466;47.566;7.786;2023-04-22T04:58:46;9.43;;;7.50;;
74108;SDS011;62466;47.566;7.786;2023-04-22T05:01:17;11.27;;;8.40;;
74108;SDS011;62466;47.566;7.786;2023-04-22T05:03:44;12.23;;;7.70;;
74108;SDS011;62466;47.566;7.786;2023-04-22T05:06:12;8.90;;;7.30;;
74108;SDS011;62466;47.566;7.786;2023-04-22T05:08:40;11.60;;;7.55;;
74108;SDS011;62466;47.566;7.786;2023-04-22T05:11:08;12.07;;;8.40;;
74108;SDS011;62466;47.566;7.786;2023-04-22T05:13:33;10.00;;;7.65;;
74108;SDS011;62466;47.566;7.786;2023-04-22T05:15:59;10.25;;;7.97;;
74108;SDS011;62466;47.566;7.786;2023-04-22T05:18:25;13.13;;;7.88;;
74108;SDS011;62466;47.566;7.786;2023-04-22T05:20:51;11.70;;;8.50;;
74108;SDS011;62466;47.566;7.786;2023-04-22T05:23:18;13.63;;;8.82;;
74108;SDS011;62466;47.566;7.786;2023-04-22T05:25:44;10.73;;;7.78;;
74108;SDS011;62466;47.566;7.786;2023-04-22T05:28:12;13.35;;;8.98;;
74108;SDS011;62466;47.566;7.786;2023-04-22T05:30:44;15.07;;;9.52;;
74108;SDS011;62466;47.566;7.786;2023-04-22T05:33:10;13.15;;;8.43;;
74108;SDS011;62466;47.566;7.786;2023-04-22T05:35:35;13.25;;;8.05;;
74108;SDS011;62466;47.566;7.786;2023-04-22T05:38:01;11.95;;;7.95;;
74108;SDS011;62466;47.566;7.786;2023-04-22T05:40:27;10.38;;;7.72;;
74108;SDS011;62466;47.566;7.786;2023-04-22T05:42:53;11.95;;;8.13;;
74108;SDS011;62466;47.566;7.786;2023-04-22T05:45:19;11.35;;;7.95;;
74108;SDS011;62466;47.566;7.786;2023-04-22T05:47:44;10.55;;;7.97;;
74108;SDS011;62466;47.566;7.786;2023-04-22T05:50:10;10.65;;;8.18;;
74108;SDS011;62466;47.566;7.786;2023-04-22T05:52:44;9.10;;;7.22;;
74108;SDS011;62466;47.566;7.786;2023-04-22T05:55:12;10.70;;;7.55;;
74108;SDS011;62466;47.566;7.786;2023-04-22T05:57:38;12.65;;;8.65;;
74108;SDS011;62466;47.566;7.786;2023-04-22T06:00:10;13.23;;;7.68;;
74108;SDS011;62466;47.566;7.786;2023-04-22T06:02:38;12.00;;;7.65;;
74108;SDS011;62466;47.566;7.786;2023-04-22T06:05:04;8.95;;;7.32;;
74108;SDS011;62466;47.566;7.786;2023-04-22T06:07:30;14.30;;;8.30;;
74108;SDS011;62466;47.566;7.786;2023-04-22T06:09:56;10.23;;;8.02;;
74108;SDS011;62466;47.566;7.786;2023-04-22T06:12:22;10.95;;;7.68;;
74108;SDS011;62466;47.566;7.786;2023-04-22T06:14:47;10.90;;;8.32;;
74108;SDS011;62466;47.566;7.786;2023-04-22T06:17:13;10.07;;;7.28;;
74108;SDS011;62466;47.566;7.786;2023-04-22T06:19:38;11.07;;;8.23;;
74108;SDS011;62466;47.566;7.786;2023-04-22T06:22:04;10.32;;;7.53;;
74108;SDS011;62466;47.566;7.786;2023-04-22T06:24:29;10.65;;;7.68;;
74108;SDS011;62466;47.566;7.786;2023-04-22T06:26:54;12.70;;;9.02;;
74108;SDS011;62466;47.566;7.786;2023-04-22T06:29:22;12.45;;;8.32;;
74108;SDS011;62466;47.566;7.786;2023-04-22T06:31:48;14.98;;;9.95;;
74108;SDS011;62466;47.566;7.786;2023-04-22T06:34:13;16.98;;;8.90;;
74108;SDS011;62466;47.566;7.786;2023-04-22T06:36:39;15.65;;;10.43;;
74108;SDS011;62466;47.566;7.786;2023-04-22T06:39:05;15.02;;;9.57;;
74108;SDS011;62466;47.566;7.786;2023-04-22T06:41:31;14.90;;;8.40;;
74108;SDS011;62466;47.566;7.786;2023-04-22T06:44:01;18.30;;;10.48;;
74108;SDS011;62466;47.566;7.786;2023-04-22T06:46:50;18.15;;;10.88;;
74108;SDS011;62466;47.566;7.786;2023-04-22T06:49:34;14.70;;;9.05;;
74108;SDS011;62466;47.566;7.786;2023-04-22T06:52:34;15.38;;;9.57;;
74108;SDS011;62466;47.566;7.786;2023-04-22T06:55:01;13.90;;;9.35;;
74108;SDS011;62466;47.566;7.786;2023-04-22T06:57:27;14.60;;;10.05;;
74108;SDS011;62466;47.566;7.786;2023-04-22T06:59:54;17.08;;;10.60;;
74108;SDS011;62466;47.566;7.786;2023-04-22T07:02:20;15.32;;;9.65;;
74108;SDS011;62466;47.566;7.786;2023-04-22T07:04:55;18.00;;;9.50;;
74108;SDS011;62466;47.566;7.786;2023-04-22T07:07:20;14.68;;;8.70;;
74108;SDS011;62466;47.566;7.786;2023-04-22T07:09:45;15.32;;;9.50;;
74108;SDS011;62466;47.566;7.786;2023-04-22T07:12:11;14.30;;;9.02;;
74108;SDS011;62466;47.566;7.786;2023-04-22T07:14:36;13.65;;;9.38;;
74108;SDS011;62466;47.566;7.786;2023-04-22T07:17:02;12.82;;;9.55;;
74108;SDS011;62466;47.566;7.786;2023-04-22T07:19:27;14.93;;;10.20;;
74108;SDS011;62466;47.566;7.786;2023-04-22T07:21:54;14.45;;;9.15;;
74108;SDS011;62466;47.566;7.786;2023-04-22T07:24:19;14.65;;;9.93;;
74108;SDS011;62466;47.566;7.786;2023-04-22T07:26:45;14.45;;;9.32;;
74108;SDS011;62466;47.566;7.786;2023-04-22T07:29:10;18.90;;;10.90;;
74108;SDS011;62466;47.566;7.786;2023-04-22T07:31:38;16.52;;;9.88;;
74108;SDS011;62466;47.566;7.786;2023-04-22T07:34:04;14.52;;;9.77;;
74108;SDS011;62466;47.566;7.786;2023-04-22T07:36:29;17.02;;;10.57;;
74108;SDS011;62466;47.566;7.786;2023-04-22T07:38:56;15.57;;;9.80;;
74108;SDS011;62466;47.566;7.786;2023-04-22T07:41:23;12.48;;;8.50;;
74108;SDS011;62466;47.566;7.786;2023-04-22T07:43:49;13.68;;;10.23;;
74108;SDS011;62466;47.566;7.786;2023-04-22T07:46:14;14.13;;;9.65;;
74108;SDS011;62466;47.566;7.786;2023-04-22T07:48:39;13.30;;;8.35;;
74108;SDS011;62466;47.566;7.786;2023-04-22T07:51:05;14.07;;;8.68;;
74108;SDS011;62466;47.566;7.786;2023-04-22T07:53:30;13.75;;;9.35;;
74108;SDS011;62466;47.566;7.786;2023-04-22T07:55:56;14.52;;;9.15;;
74108;SDS011;62466;47.566;7.786;2023-04-22T07:58:21;12.77;;;8.90;;
74108;SDS011;62466;47.566;7.786;2023-04-22T08:00:47;14.23;;;10.10;;
74108;SDS011;62466;47.566;7.786;2023-04-22T08:03:12;13.73;;;8.95;;
74108;SDS011;62466;47.566;7.786;2023-04-22T08:05:38;11.95;;;8.27;;
74108;SDS011;62466;47.566;7.786;2023-04-22T08:08:03;13.57;;;9.82;;
74108;SDS011;62466;47.566;7.786;2023-04-22T08:10:29;16.27;;;8.80;;
74108;SDS011;62466;47.566;7.786;2023-04-22T08:12:55;15.45;;;9.05;;
74108;SDS011;62466;47.566;7.786;2023-04-22T08:15:20;12.15;;;8.13;;
74108;SDS011;62466;47.566;7.786;2023-04-22T08:17:46;10.73;;;7.85;;
74108;SDS011;62466;47.566;7.786;2023-04-22T08:20:11;13.52;;;8.77;;
74108;SDS011;62466;47.566;7.786;2023-04-22T08:22:39;12.98;;;9.57;;
74108;SDS011;62466;47.566;7.786;2023-04-22T08:25:07;13.80;;;9.35;;
74108;SDS011;62466;47.566;7.786;2023-04-22T08:27:33;13.23;;;8.23;;
74108;SDS011;62466;47.566;7.786;2023-04-22T08:29:59;11.57;;;8.30;;
74108;SDS011;62466;47.566;7.786;2023-04-22T08:32:24;9.85;;;6.95;;
74108;SDS011;62466;47.566;7.786;2023-04-22T08:34:50;10.10;;;6.93;;
74108;SDS011;62466;47.566;7.786;2023-04-22T08:37:16;11.55;;;6.90;;
74108;SDS011;62466;47.566;7.786;2023-04-22T08:39:41;13.43;;;6.68;;
74108;SDS011;62466;47.566;7.786;2023-04-22T08:42:07;11.57;;;7.45;;
74108;SDS011;62466;47.566;7.786;2023-04-22T08:44:33;9.65;;;5.78;;
74108;SDS011;62466;47.566;7.786;2023-04-22T08:46:59;11.50;;;6.28;;
74108;SDS011;62466;47.566;7.786;2023-04-22T08:49:25;9.95;;;6.43;;
74108;SDS011;62466;47.566;7.786;2023-04-22T08:51:51;9.80;;;6.47;;
74108;SDS011;62466;47.566;7.786;2023-04-22T08:54:17;8.43;;;6.35;;
74108;SDS011;62466;47.566;7.786;2023-04-22T08:56:43;10.55;;;5.78;;
74108;SDS011;62466;47.566;7.786;2023-04-22T08:59:09;7.07;;;5.00;;
74108;SDS011;62466;47.566;7.786;2023-04-22T09:01:37;8.07;;;5.07;;
74108;SDS011;62466;47.566;7.786;2023-04-22T09:04:03;5.32;;;4.13;;
74108;SDS011;62466;47.566;7.786;2023-04-22T09:06:29;5.75;;;4.57;;
74108;SDS011;62466;47.566;7.786;2023-04-22T09:08:57;5.50;;;4.47;;
74108;SDS011;62466;47.566;7.786;2023-04-22T09:11:25;5.78;;;4.82;;
74108;SDS011;62466;47.566;7.786;2023-04-22T09:13:52;10.05;;;4.40;;
74108;SDS011;62466;47.566;7.786;2023-04-22T09:16:18;6.07;;;4.30;;
74108;SDS011;62466;47.566;7.786;2023-04-22T09:18:44;4.57;;;3.70;;
74108;SDS011;62466;47.566;7.786;2023-04-22T09:21:12;6.93;;;4.40;;
74108;SDS011;62466;47.566;7.786;2023-04-22T09:23:47;3.88;;;3.30;;
74108;SDS011;62466;47.566;7.786;2023-04-22T09:26:14;4.85;;;4.07;;
74108;SDS011;62466;47.566;7.786;2023-04-22T09:28:52;4.68;;;3.78;;
74108;SDS011;62466;47.566;7.786;2023-04-22T09:31:19;4.22;;;3.78;;
74108;SDS011;62466;47.566;7.786;2023-04-22T09:33:52;5.75;;;3.97;;
74108;SDS011;62466;47.566;7.786;2023-04-22T09:36:29;4.78;;;3.40;;
74108;SDS011;62466;47.566;7.786;2023-04-22T09:38:59;6.93;;;4.00;;
74108;SDS011;62466;47.566;7.786;2023-04-22T09:41:26;4.85;;;3.90;;
74108;SDS011;62466;47.566;7.786;2023-04-22T09:43:58;5.40;;;4.28;;
74108;SDS011;62466;47.566;7.786;2023-04-22T09:46:25;7.10;;;4.40;;
74108;SDS011;62466;47.566;7.786;2023-04-22T09:48:52;4.53;;;3.70;;
74108;SDS011;62466;47.566;7.786;2023-04-22T09:51:19;6.45;;;3.85;;
74108;SDS011;62466;47.566;7.786;2023-04-22T09:53:44;5.80;;;3.80;;
74108;SDS011;62466;47.566;7.786;2023-04-22T09:56:24;7.03;;;3.67;;
74108;SDS011;62466;47.566;7.786;2023-04-22T10:01:40;5.78;;;3.90;;
74108;SDS011;62466;47.566;7.786;2023-04-22T10:04:20;4.50;;;3.35;;
74108;SDS011;62466;47.566;7.786;2023-04-22T10:06:55;6.28;;;4.03;;
74108;SDS011;62466;47.566;7.786;2023-04-22T10:09:24;4.90;;;4.10;;
74108;SDS011;62466;47.566;7.786;2023-04-22T10:12:08;5.65;;;4.88;;
74108;SDS011;62466;47.566;7.786;2023-04-22T10:14:38;7.70;;;4.38;;
74108;SDS011;62466;47.566;7.786;2023-04-22T10:17:10;6.75;;;4.72;;
74108;SDS011;62466;47.566;7.786;2023-04-22T10:19:39;8.95;;;4.45;;
74108;SDS011;62466;47.566;7.786;2023-04-22T10:22:09;6.60;;;4.75;;
74108;SDS011;62466;47.566;7.786;2023-04-22T10:24:35;6.07;;;4.07;;
74108;SDS011;62466;47.566;7.786;2023-04-22T10:27:05;4.80;;;4.18;;
74108;SDS011;62466;47.566;7.786;2023-04-22T10:29:38;5.30;;;4.10;;
74108;SDS011;62466;47.566;7.786;2023-04-22T10:34:43;6.40;;;4.63;;
74108;SDS011;62466;47.566;7.786;2023-04-22T10:37:17;6.70;;;4.38;;
74108;SDS011;62466;47.566;7.786;2023-04-22T10:40:04;8.88;;;5.57;;
74108;SDS011;62466;47.566;7.786;2023-04-22T10:42:57;7.72;;;4.32;;
74108;SDS011;62466;47.566;7.786;2023-04-22T10:45:32;7.88;;;4.85;;
74108;SDS011;62466;47.566;7.786;2023-04-22T10:48:01;6.43;;;5.38;;
74108;SDS011;62466;47.566;7.786;2023-04-22T10:50:30;6.83;;;4.73;;
74108;SDS011;62466;47.566;7.786;2023-04-22T10:53:33;5.40;;;4.20;;
74108;SDS011;62466;47.566;7.786;2023-04-22T10:56:16;5.25;;;4.20;;
74108;SDS011;62466;47.566;7.786;2023-04-22T11:01:47;7.03;;;4.63;;
74108;SDS011;62466;47.566;7.786;2023-04-22T11:04:22;5.68;;;4.07;;
74108;SDS011;62466;47.566;7.786;2023-04-22T11:15:12;6.93;;;4.30;;
74108;SDS011;62466;47.566;7.786;2023-04-22T11:17:47;6.45;;;4.40;;
74108;SDS011;62466;47.566;7.786;2023-04-22T11:20:15;6.57;;;4.05;;
74108;SDS011;62466;47.566;7.786;2023-04-22T11:22:44;5.85;;;3.90;;
74108;SDS011;62466;47.566;7.786;2023-04-22T11:25:11;6.50;;;3.90;;
74108;SDS011;62466;47.566;7.786;2023-04-22T11:27:43;4.28;;;3.45;;
74108;SDS011;62466;47.566;7.786;2023-04-22T11:30:10;6.70;;;4.50;;
74108;SDS011;62466;47.566;7.786;2023-04-22T11:32:42;4.57;;;3.70;;
74108;SDS011;62466;47.566;7.786;2023-04-22T11:35:12;7.27;;;4.33;;
74108;SDS011;62466;47.566;7.786;2023-04-22T11:37:59;6.97;;;5.18;;
74108;SDS011;62466;47.566;7.786;2023-04-22T11:40:32;6.13;;;4.93;;
74108;SDS011;62466;47.566;7.786;2023-04-22T11:43:03;10.35;;;5.57;;
74108;SDS011;62466;47.566;7.786;2023-04-22T11:45:31;7.68;;;4.63;;
74108;SDS011;62466;47.566;7.786;2023-04-22T11:48:00;7.45;;;5.70;;
74108;SDS011;62466;47.566;7.786;2023-04-22T11:50:29;6.28;;;4.80;;
74108;SDS011;62466;47.566;7.786;2023-04-22T11:53:00;6.93;;;4.20;;
74108;SDS011;62466;47.566;7.786;2023-04-22T11:55:37;7.25;;;4.57;;
74108;SDS011;62466;47.566;7.786;2023-04-22T11:58:11;5.22;;;4.63;;
74108;SDS011;62466;47.566;7.786;2023-04-22T12:00:44;6.97;;;4.00;;
74108;SDS011;62466;47.566;7.786;2023-04-22T12:03:12;4.28;;;2.95;;
74108;SDS011;62466;47.566;7.786;2023-04-22T12:06:00;5.25;;;3.30;;
74108;SDS011;62466;47.566;7.786;2023-04-22T12:08:30;4.20;;;3.15;;
74108;SDS011;62466;47.566;7.786;2023-04-22T12:10:58;4.78;;;3.00;;
74108;SDS011;62466;47.566;7.786;2023-04-22T12:13:31;4.45;;;2.92;;
74108;SDS011;62466;47.566;7.786;2023-04-22T12:16:02;5.60;;;3.30;;
74108;SDS011;62466;47.566;7.786;2023-04-22T12:18:29;4.68;;;3.42;;
74108;SDS011;62466;47.566;7.786;2023-04-22T12:21:10;4.97;;;3.30;;
74108;SDS011;62466;47.566;7.786;2023-04-22T12:23:43;4.03;;;3.63;;
74108;SDS011;62466;47.566;7.786;2023-04-22T12:26:10;6.47;;;3.63;;
74108;SDS011;62466;47.566;7.786;2023-04-22T12:28:37;5.05;;;3.95;;
74108;SDS011;62466;47.566;7.786;2023-04-22T12:31:03;6.22;;;4.28;;
74108;SDS011;62466;47.566;7.786;2023-04-22T12:33:29;6.38;;;4.22;;
74108;SDS011;62466;47.566;7.786;2023-04-22T12:35:55;8.35;;;3.58;;
74108;SDS011;62466;47.566;7.786;2023-04-22T12:38:20;5.63;;;3.47;;
74108;SDS011;62466;47.566;7.786;2023-04-22T12:40:46;4.53;;;3.38;;
74108;SDS011;62466;47.566;7.786;2023-04-22T12:43:11;4.60;;;4.10;;
74108;SDS011;62466;47.566;7.786;2023-04-22T12:45:37;4.88;;;3.78;;
74108;SDS011;62466;47.566;7.786;2023-04-22T12:48:03;6.35;;;4.30;;
74108;SDS011;62466;47.566;7.786;2023-04-22T12:50:29;6.65;;;3.90;;
74108;SDS011;62466;47.566;7.786;2023-04-22T12:52:54;4.88;;;3.70;;
74108;SDS011;62466;47.566;7.786;2023-04-22T12:55:20;3.97;;;3.53;;
74108;SDS011;62466;47.566;7.786;2023-04-22T12:57:46;5.90;;;3.50;;
74108;SDS011;62466;47.566;7.786;2023-04-22T13:00:12;5.32;;;3.22;;
74108;SDS011;62466;47.566;7.786;2023-04-22T13:02:41;4.35;;;3.20;;
74108;SDS011;62466;47.566;7.786;2023-04-22T13:05:07;4.07;;;3.67;;
74108;SDS011;62466;47.566;7.786;2023-04-22T13:07:34;5.22;;;3.28;;
74108;SDS011;62466;47.566;7.786;2023-04-22T13:09:59;5.13;;;3.10;;
74108;SDS011;62466;47.566;7.786;2023-04-22T13:12:25;4.60;;;2.60;;
74108;SDS011;62466;47.566;7.786;2023-04-22T13:14:50;3.58;;;2.90;;
74108;SDS011;62466;47.566;7.786;2023-04-22T13:17:16;3.50;;;2.40;;
74108;SDS011;62466;47.566;7.786;2023-04-22T13:19:41;3.55;;;2.83;;
74108;SDS011;62466;47.566;7.786;2023-04-22T13:22:07;2.65;;;2.25;;
74108;SDS011;62466;47.566;7.786;2023-04-22T13:24:32;2.85;;;2.65;;
74108;SDS011;62466;47.566;7.786;2023-04-22T13:26:58;4.20;;;3.22;;
74108;SDS011;62466;47.566;7.786;2023-04-22T13:29:24;3.10;;;2.80;;
74108;SDS011;62466;47.566;7.786;2023-04-22T13:31:50;5.57;;;2.83;;
74108;SDS011;62466;47.566;7.786;2023-04-22T13:34:15;2.97;;;2.40;;
74108;SDS011;62466;47.566;7.786;2023-04-22T13:41:58;2.03;;;1.80;;
74108;SDS011;62466;47.566;7.786;2023-04-22T13:44:24;2.05;;;1.80;;
74108;SDS011;62466;47.566;7.786;2023-04-22T13:46:49;2.55;;;1.85;;
74108;SDS011;62466;47.566;7.786;2023-04-22T13:49:15;2.63;;;1.48;;
74108;SDS011;62466;47.566;7.786;2023-04-22T13:51:40;4.47;;;1.42;;
74108;SDS011;62466;47.566;7.786;2023-04-22T13:54:06;3.05;;;1.40;;
74108;SDS011;62466;47.566;7.786;2023-04-22T13:56:32;3.63;;;1.80;;
74108;SDS011;62466;47.566;7.786;2023-04-22T13:58:58;2.53;;;1.27;;
74108;SDS011;62466;47.566;7.786;2023-04-22T14:01:24;2.33;;;1.42;;
74108;SDS011;62466;47.566;7.786;2023-04-22T14:03:49;3.70;;;1.20;;
74108;SDS011;62466;47.566;7.786;2023-04-22T14:06:15;1.27;;;1.17;;
74108;SDS011;62466;47.566;7.786;2023-04-22T14:08:41;4.32;;;1.25;;
74108;SDS011;62466;47.566;7.786;2023-04-22T14:11:19;2.40;;;1.42;;
74108;SDS011;62466;47.566;7.786;2023-04-22T14:13:44;1.42;;;1.20;;
74108;SDS011;62466;47.566;7.786;2023-04-22T14:16:10;3.10;;;1.50;;
74108;SDS011;62466;47.566;7.786;2023-04-22T14:18:37;1.88;;;1.33;;
74108;SDS011;62466;47.566;7.786;2023-04-22T14:21:06;2.35;;;1.42;;
74108;SDS011;62466;47.566;7.786;2023-04-22T14:23:35;1.10;;;0.98;;
74108;SDS011;62466;47.566;7.786;2023-04-22T14:26:01;2.00;;;1.23;;
74108;SDS011;62466;47.566;7.786;2023-04-22T14:28:27;1.17;;;0.90;;
74108;SDS011;62466;47.566;7.786;2023-04-22T14:30:53;1.35;;;1.00;;
74108;SDS011;62466;47.566;7.786;2023-04-22T14:33:18;2.05;;;1.13;;
74108;SDS011;62466;47.566;7.786;2023-04-22T14:35:44;1.20;;;1.10;;
74108;SDS011;62466;47.566;7.786;2023-04-22T14:38:10;2.10;;;1.30;;
74108;SDS011;62466;47.566;7.786;2023-04-22T14:40:36;1.17;;;1.08;;
74108;SDS011;62466;47.566;7.786;2023-04-22T14:43:02;1.17;;;1.08;;
74108;SDS011;62466;47.566;7.786;2023-04-22T14:45:29;3.20;;;1.30;;
74108;SDS011;62466;47.566;7.786;2023-04-22T14:47:56;1.35;;;1.25;;
74108;SDS011;62466;47.566;7.786;2023-04-22T14:50:21;1.42;;;1.33;;
74108;SDS011;62466;47.566;7.786;2023-04-22T14:52:47;8.70;;;1.65;;
74108;SDS011;62466;47.566;7.786;2023-04-22T14:55:13;2.45;;;1.55;;
74108;SDS011;62466;47.566;7.786;2023-04-22T14:57:38;1.52;;;1.40;;
74108;SDS011;62466;47.566;7.786;2023-04-22T15:00:05;1.95;;;1.50;;
74108;SDS011;62466;47.566;7.786;2023-04-22T15:02:32;1.70;;;1.60;;
74108;SDS011;62466;47.566;7.786;2023-04-22T15:04:57;1.70;;;1.60;;
74108;SDS011;62466;47.566;7.786;2023-04-22T15:07:23;3.45;;;1.85;;